createdAt,value
2019-06-07T00:01:47.959Z,99803.35
2019-06-07T00:04:20.797Z,99804.72
2019-06-07T00:06:48.378Z,99790.02
2019-06-07T00:09:22.096Z,99808.25
2019-06-07T00:11:48.907Z,99810.14
2019-06-07T00:14:20.844Z,99810.67
2019-06-07T00:16:49.219Z,99808.22
2019-06-07T00:19:19.088Z,99809.33
2019-06-07T00:24:21.853Z,99815.30
2019-06-07T00:26:58.319Z,99804.97
2019-06-07T00:29:22.235Z,99816.38
2019-06-07T00:31:51.867Z,99819.91
2019-06-07T00:34:23.166Z,99823.14
2019-06-07T00:36:52.353Z,99827.24
2019-06-07T00:39:25.355Z,99825.87
2019-06-07T00:41:52.617Z,99829.16
2019-06-07T00:44:23.468Z,99821.80
2019-06-07T00:46:53.731Z,99808.76
2019-06-07T00:49:40.050Z,99813.13
2019-06-07T00:51:54.254Z,99811.19
2019-06-07T00:54:24.995Z,99808.41
2019-06-07T00:56:55.498Z,99809.77
2019-06-07T00:59:29.609Z,99805.95
2019-06-07T01:01:57.414Z,99805.38
2019-06-07T01:04:27.259Z,99804.08
2019-06-07T01:06:56.730Z,99802.98
2019-06-07T01:09:26.374Z,99806.74
2019-06-07T01:11:59.222Z,99811.07
2019-06-07T01:14:33.486Z,99804.81
2019-06-07T01:17:39.179Z,99809.13
2019-06-07T01:19:56.293Z,99807.53
2019-06-07T01:22:29.076Z,99814.28
2019-06-07T01:25:02.175Z,99812.66
2019-06-07T01:27:31.595Z,99815.33
2019-06-07T01:30:01.087Z,99818.89
2019-06-07T01:32:31.700Z,99822.14
2019-06-07T01:41:04.826Z,99817.52
2019-06-07T01:43:38.843Z,99823.75
2019-06-07T01:46:09.604Z,99817.99
2019-06-07T01:48:49.309Z,99817.47
2019-06-07T01:51:15.921Z,99809.36
2019-06-07T01:53:46.806Z,99810.20
2019-06-07T01:56:18.584Z,99797.69
2019-06-07T01:58:47.847Z,99797.13
2019-06-07T02:01:19.186Z,99787.63
2019-06-07T02:09:28.423Z,99787.34
2019-06-07T02:11:56.806Z,99780.87
2019-06-07T02:14:29.822Z,99774.33
2019-06-07T02:16:57.466Z,99781.63
2019-06-07T02:19:37.569Z,99776.23
2019-06-07T02:22:07.013Z,99777.85
2019-06-07T02:24:36.748Z,99770.23
2019-06-07T02:27:06.222Z,99781.10
2019-06-07T02:29:36.072Z,99780.56
2019-06-07T02:32:05.511Z,99785.47
2019-06-07T02:34:38.655Z,99783.53
2019-06-07T02:51:24.437Z,99757.40
2019-06-07T02:53:53.755Z,99749.53
2019-06-07T03:00:05.523Z,99755.72
2019-06-07T03:02:14.831Z,99746.95
2019-06-07T03:04:45.082Z,99746.63
2019-06-07T03:07:15.090Z,99746.61
2019-06-07T03:09:44.771Z,99750.17
2019-06-07T03:12:16.207Z,99755.48
2019-06-07T03:14:45.592Z,99752.94
2019-06-07T03:17:30.451Z,99748.38
2019-06-07T03:20:03.033Z,99749.09
2019-06-07T03:22:39.909Z,99747.80
2019-06-07T03:25:07.611Z,99748.63
2019-06-07T03:27:48.601Z,99753.77
2019-06-07T03:30:35.860Z,99759.98
2019-06-07T03:32:46.832Z,99752.81
2019-06-07T03:35:10.742Z,99767.26
2019-06-07T03:37:42.669Z,99765.19
2019-06-07T03:40:10.922Z,99767.10
2019-06-07T03:42:40.284Z,99765.98
2019-06-07T03:45:09.475Z,99761.90
2019-06-07T03:47:42.075Z,99755.98
2019-06-07T03:50:09.753Z,99751.95
2019-06-07T03:52:41.268Z,99742.92
2019-06-07T03:55:10.007Z,99745.68
2019-06-07T03:58:29.364Z,99749.58
2019-06-07T04:00:10.536Z,99751.23
2019-06-07T04:02:41.990Z,99749.33
2019-06-07T04:05:10.976Z,99753.69
2019-06-07T04:07:44.337Z,99750.53
2019-06-07T04:10:11.710Z,99754.09
2019-06-07T04:12:43.962Z,99752.51
2019-06-07T04:15:13.247Z,99751.42
2019-06-07T04:18:00.767Z,99742.27
2019-06-07T04:20:13.605Z,99746.65
2019-06-07T04:22:42.975Z,99745.31
2019-06-07T04:25:13.128Z,99739.63
2019-06-07T04:27:42.374Z,99733.93
2019-06-07T04:30:11.909Z,99730.98
2019-06-07T04:32:44.815Z,99722.82
2019-06-07T04:35:12.258Z,99715.50
2019-06-07T04:37:42.768Z,99711.95
2019-06-07T04:40:12.384Z,99708.41
2019-06-07T04:42:45.364Z,99713.06
2019-06-07T04:45:33.065Z,99718.84
2019-06-07T04:47:46.520Z,99712.31
2019-06-07T04:50:15.790Z,99703.59
2019-06-07T04:52:45.826Z,99695.99
2019-06-07T04:55:15.238Z,99704.96
2019-06-07T04:57:44.478Z,99698.14
2019-06-07T05:00:46.673Z,99688.08
2019-06-07T05:02:45.350Z,99683.94
2019-06-07T05:05:15.076Z,99675.43
2019-06-07T05:07:46.208Z,99672.37
2019-06-07T05:10:15.809Z,99670.52
2019-06-07T05:12:45.007Z,99659.58
2019-06-07T05:15:14.713Z,99633.00
2019-06-07T05:17:45.208Z,99616.52
2019-06-07T05:20:16.050Z,99599.48
2019-06-07T05:22:45.711Z,99578.71
2019-06-07T05:25:14.957Z,99567.98
2019-06-07T05:27:46.900Z,99559.36
2019-06-07T05:30:57.811Z,99549.82
2019-06-07T05:32:49.420Z,99547.12
2019-06-07T05:35:19.091Z,99550.19
2019-06-07T05:37:48.295Z,99540.84
2019-06-07T05:40:21.642Z,99536.91
2019-06-07T05:42:50.962Z,99537.23
2019-06-07T05:45:24.604Z,99529.00
2019-06-07T05:47:53.834Z,99532.84
2019-06-07T05:50:39.031Z,99520.23
2019-06-07T05:52:54.381Z,99517.61
2019-06-07T05:55:35.328Z,99500.53
2019-06-07T05:58:04.671Z,99502.38
2019-06-07T06:00:36.357Z,99504.77
2019-06-07T06:03:06.273Z,99488.77
2019-06-07T06:05:41.629Z,99482.42
2019-06-07T06:08:06.962Z,99483.08
2019-06-07T06:10:37.625Z,99471.41
2019-06-07T06:13:07.532Z,99462.42
2019-06-07T06:15:46.385Z,99455.64
2019-06-07T06:18:08.865Z,99442.75
2019-06-07T06:21:00.965Z,99442.89
2019-06-07T06:23:09.152Z,99440.56
2019-06-07T06:25:41.593Z,99440.13
2019-06-07T06:28:12.039Z,99440.98
2019-06-07T06:30:41.214Z,99436.27
2019-06-07T06:33:30.746Z,99434.94
2019-06-07T06:35:42.574Z,99429.75
2019-06-07T06:38:13.318Z,99425.84
2019-06-07T06:40:46.528Z,99422.66
2019-06-07T06:43:13.871Z,99425.36
2019-06-07T06:45:46.879Z,99410.12
2019-06-07T06:48:15.565Z,99412.99
2019-06-07T06:50:49.007Z,99403.19
2019-06-07T06:53:15.814Z,99410.23
2019-06-07T06:55:48.483Z,99413.51
2019-06-07T06:58:16.064Z,99410.37
2019-06-07T07:00:56.874Z,99420.11
2019-06-07T07:03:54.292Z,99412.41
2019-06-07T07:05:54.602Z,99422.06
2019-06-07T07:08:23.708Z,99417.31
2019-06-07T07:10:54.916Z,99413.31
2019-06-07T07:13:23.952Z,99409.88
2019-06-07T07:15:57.831Z,99417.17
2019-06-07T07:18:24.157Z,99415.30
2019-06-07T07:20:56.857Z,99415.14
2019-06-07T07:23:24.419Z,99411.47
2019-06-07T07:25:59.507Z,99412.08
2019-06-07T07:28:24.728Z,99411.20
2019-06-07T07:30:56.976Z,99403.13
2019-06-07T07:33:26.095Z,99400.94
2019-06-07T07:36:15.634Z,99406.23
2019-06-07T07:38:26.413Z,99408.50
2019-06-07T07:41:06.729Z,99399.70
2019-06-07T07:43:26.632Z,99408.99
2019-06-07T07:46:02.187Z,99408.77
2019-06-07T07:48:27.058Z,99418.34
2019-06-07T07:51:00.586Z,99409.36
2019-06-07T07:53:45.393Z,99407.66
2019-06-07T07:56:00.047Z,99397.39
2019-06-07T07:58:29.739Z,99395.67
2019-06-07T08:01:09.796Z,99394.91
2019-06-07T08:03:30.669Z,99401.48
2019-06-07T08:06:00.330Z,99390.79
2019-06-07T08:08:29.697Z,99385.32
2019-06-07T08:11:01.790Z,99387.12
2019-06-07T08:13:29.942Z,99393.17
2019-06-07T08:16:05.039Z,99390.83
2019-06-07T08:18:30.112Z,99407.86
2019-06-07T08:21:15.001Z,99396.10
2019-06-07T08:23:30.289Z,99396.52
2019-06-07T08:26:01.046Z,99395.48
2019-06-07T08:28:30.942Z,99390.87
2019-06-07T08:31:06.295Z,99375.64
2019-06-07T08:33:31.210Z,99377.78
2019-06-07T08:36:13.925Z,99379.25
2019-06-07T08:38:47.114Z,99371.64
2019-06-07T08:41:11.465Z,99365.78
2019-06-07T08:43:33.731Z,99360.70
2019-06-07T08:46:07.461Z,99367.36
2019-06-07T08:48:33.937Z,99357.71
2019-06-07T08:51:08.299Z,99339.78
2019-06-07T08:53:34.589Z,99334.84
2019-06-07T08:56:09.837Z,99319.92
2019-06-07T08:58:34.775Z,99321.48
2019-06-07T09:01:08.311Z,99322.27
2019-06-07T09:03:35.180Z,99313.96
2019-06-07T09:06:16.119Z,99305.09
2019-06-07T09:08:35.519Z,99300.78
2019-06-07T09:11:10.607Z,99293.13
2019-06-07T09:13:36.158Z,99290.91
2019-06-07T09:16:08.636Z,99299.61
2019-06-07T09:18:42.691Z,99299.61
2019-06-07T09:21:09.613Z,99302.77
2019-06-07T09:23:38.335Z,99301.45
2019-06-07T09:26:16.581Z,99292.00
2019-06-07T09:28:38.700Z,99288.88
2019-06-07T09:31:10.533Z,99289.34
2019-06-07T09:33:39.095Z,99285.54
2019-06-07T09:36:12.535Z,99279.41
2019-06-07T09:38:39.638Z,99271.00
2019-06-07T09:41:47.527Z,99264.63
2019-06-07T09:44:21.397Z,99266.30
2019-06-07T09:46:42.885Z,99260.50
2019-06-07T09:49:28.293Z,99256.10
2019-06-07T09:51:46.453Z,99236.30
2019-06-07T09:55:02.265Z,99246.47
2019-06-07T09:56:47.299Z,99247.97
2019-06-07T09:59:16.601Z,99249.45
2019-06-07T10:01:47.739Z,99245.94
2019-06-07T10:04:30.817Z,99253.86
2019-06-07T10:06:49.551Z,99246.91
2019-06-07T10:11:50.309Z,99242.94
2019-06-07T10:14:20.849Z,99254.19
2019-06-07T10:16:51.428Z,99253.33
2019-06-07T10:19:21.586Z,99255.14
2019-06-07T10:21:51.630Z,99252.34
2019-06-07T10:24:21.361Z,99266.84
2019-06-07T10:26:51.372Z,99269.52
2019-06-07T10:29:20.685Z,99254.13
2019-06-07T10:31:53.780Z,99251.81
2019-06-07T10:34:24.889Z,99257.67
2019-06-07T10:36:56.291Z,99248.81
2019-06-07T10:39:27.051Z,99240.89
2019-06-07T10:41:56.731Z,99228.45
2019-06-07T10:44:26.128Z,99221.05
2019-06-07T10:46:59.145Z,99224.51
2019-06-07T10:49:27.458Z,99218.48
2019-06-07T10:51:56.826Z,99209.67
2019-06-07T10:54:30.523Z,99210.19
2019-06-07T10:56:57.239Z,99216.98
2019-06-07T10:59:26.582Z,99215.80
2019-06-07T11:01:55.782Z,99209.11
2019-06-07T11:04:25.387Z,99195.58
2019-06-07T11:06:54.576Z,99205.44
2019-06-07T11:09:23.824Z,99204.43
2019-06-07T11:11:53.056Z,99211.47
2019-06-07T11:14:22.284Z,99233.83
2019-06-07T11:16:51.618Z,99223.16
2019-06-07T11:19:21.174Z,99222.64
2019-06-07T11:21:50.362Z,99211.52
2019-06-07T11:24:24.417Z,99220.97
2019-06-07T11:26:50.589Z,99198.73
2019-06-07T11:29:20.101Z,99201.60
2019-06-07T11:31:49.292Z,99188.17
2019-06-07T11:34:18.910Z,99175.93
2019-06-07T11:36:51.049Z,99170.02
2019-06-07T11:39:19.472Z,99183.88
2019-06-07T11:41:48.705Z,99181.22
2019-06-07T11:44:17.917Z,99183.58
2019-06-07T11:46:47.122Z,99200.37
2019-06-07T11:49:20.417Z,99213.94
2019-06-07T11:51:47.334Z,99214.77
2019-06-07T11:54:20.106Z,99226.16
2019-06-07T11:56:47.506Z,99218.28
2019-06-07T11:59:17.476Z,99205.25
2019-06-07T12:01:46.810Z,99214.54
2019-06-07T12:04:33.850Z,99202.05
2019-06-07T12:06:47.028Z,99214.33
2019-06-07T12:09:16.863Z,99217.95
2019-06-07T12:11:46.409Z,99220.74
2019-06-07T12:14:23.811Z,99207.48
2019-06-07T12:16:53.075Z,99205.25
2019-06-07T12:19:22.345Z,99201.28
2019-06-07T12:21:51.561Z,99195.01
2019-06-07T12:24:21.199Z,99194.88
2019-06-07T12:26:50.560Z,99201.08
2019-06-07T12:29:21.071Z,99204.98
2019-06-07T12:31:50.392Z,99201.66
2019-06-07T12:34:20.008Z,99202.41
2019-06-07T12:36:49.239Z,99198.30
2019-06-07T12:39:18.540Z,99207.93
2019-06-07T12:41:47.818Z,99202.64
2019-06-07T12:44:18.520Z,99214.80
2019-06-07T12:46:47.935Z,99203.25
2019-06-07T12:49:17.190Z,99202.57
2019-06-07T12:51:46.761Z,99214.66
2019-06-07T12:54:15.977Z,99208.52
2019-06-07T12:56:45.284Z,99204.02
2019-06-07T12:59:15.879Z,99192.36
2019-06-07T13:01:45.175Z,99199.67
2019-06-07T13:04:14.465Z,99191.67
2019-06-07T13:06:43.671Z,99194.40
2019-06-07T13:09:12.858Z,99207.52
2019-06-07T13:11:42.461Z,99213.23
2019-06-07T13:14:12.034Z,99222.61
2019-06-07T13:16:41.304Z,99228.53
2019-06-07T13:19:10.570Z,99245.25
2019-06-07T13:21:39.790Z,99235.08
2019-06-07T13:24:08.990Z,99234.14
2019-06-07T13:26:38.240Z,99214.16
2019-06-07T13:29:07.463Z,99233.50
2019-06-07T13:31:36.698Z,99236.64
2019-06-07T13:34:05.965Z,99239.83
2019-06-07T13:36:35.181Z,99246.20
2019-06-07T13:39:05.133Z,99237.02
2019-06-07T13:41:42.435Z,99231.77
2019-06-07T13:44:05.323Z,99231.31
2019-06-07T13:46:34.541Z,99227.15
2019-06-07T13:49:03.765Z,99212.37
2019-06-07T13:51:33.467Z,99189.16
2019-06-07T13:54:03.228Z,99196.30
2019-06-07T13:56:32.479Z,99192.20
2019-06-07T13:59:01.675Z,99189.98
2019-06-07T14:01:30.907Z,99205.71
2019-06-07T14:04:00.403Z,99194.28
2019-06-07T14:06:30.303Z,99206.23
2019-06-07T14:08:59.662Z,99202.28
2019-06-07T14:11:31.488Z,99197.41
2019-06-07T14:13:59.829Z,99189.96
2019-06-07T14:16:30.415Z,99194.07
2019-06-07T14:18:59.692Z,99209.56
2019-06-07T14:21:29.157Z,99215.31
2019-06-07T14:23:58.405Z,99206.50
2019-06-07T14:26:27.591Z,99197.30
2019-06-07T14:28:57.188Z,99189.47
2019-06-07T14:31:26.426Z,99192.21
2019-06-07T14:33:55.767Z,99184.91
2019-06-07T14:36:24.975Z,99177.34
2019-06-07T14:38:54.287Z,99170.25
2019-06-07T14:41:25.167Z,99174.25
2019-06-07T14:43:54.681Z,99176.69
2019-06-07T14:46:25.694Z,99189.43
2019-06-07T14:48:55.057Z,99186.91
2019-06-07T14:51:24.292Z,99173.57
2019-06-07T14:53:53.749Z,99193.28
2019-06-07T14:56:22.957Z,99175.73
2019-06-07T14:58:52.676Z,99176.51
2019-06-07T15:01:22.055Z,99174.34
2019-06-07T15:03:52.870Z,99193.30
2019-06-07T15:06:26.779Z,99201.04
2019-06-07T15:08:59.764Z,99198.30
2019-06-07T15:11:33.120Z,99195.83
2019-06-07T15:14:02.822Z,99189.45
2019-06-07T15:16:33.740Z,99200.34
2019-06-07T15:19:03.716Z,99194.38
2019-06-07T15:21:34.999Z,99132.21
2019-06-07T15:24:04.925Z,99128.70
2019-06-07T15:26:34.835Z,99094.31
2019-06-07T15:29:05.256Z,99071.33
2019-06-07T15:31:36.603Z,99107.95
2019-06-07T15:34:05.732Z,99132.95
2019-06-07T15:36:36.380Z,99138.41
2019-06-07T15:39:08.679Z,99089.33
2019-06-07T15:41:39.933Z,99089.33
2019-06-07T15:44:09.645Z,99076.63
2019-06-07T15:46:40.116Z,99094.73
2019-06-07T15:49:12.701Z,99094.03
2019-06-07T15:51:42.454Z,99097.85
2019-06-07T15:54:12.239Z,99108.38
2019-06-07T15:56:43.181Z,99123.31
2019-06-07T15:59:19.146Z,99136.25
2019-06-07T16:01:57.713Z,99156.13
2019-06-07T16:04:37.681Z,99191.77
2019-06-07T16:07:08.733Z,99222.38
2019-06-07T16:09:42.707Z,99247.85
2019-06-07T16:12:13.943Z,99257.31
2019-06-07T16:14:43.935Z,99268.70
2019-06-07T16:17:24.398Z,99295.22
2019-06-07T16:20:02.426Z,99362.14
2019-06-07T16:22:33.426Z,99362.14
2019-06-07T16:25:02.836Z,99418.17
2019-06-07T16:27:31.991Z,99423.12
2019-06-07T16:30:08.796Z,99459.98
2019-06-07T16:32:41.824Z,99460.52
2019-06-07T16:35:25.931Z,99445.60
2019-06-07T16:37:55.309Z,99431.02
2019-06-07T16:40:25.909Z,99442.97
2019-06-07T16:42:56.390Z,99437.33
2019-06-07T16:45:25.613Z,99428.87
2019-06-07T16:47:58.034Z,99456.88
2019-06-07T16:50:27.298Z,99479.34
2019-06-07T16:52:56.528Z,99475.98
2019-06-07T16:55:26.434Z,99492.99
2019-06-07T16:57:55.832Z,99508.30
2019-06-07T17:00:25.450Z,99498.03
2019-06-07T17:02:56.983Z,99502.66
2019-06-07T17:05:26.264Z,99510.56
2019-06-07T17:07:55.504Z,99507.88
2019-06-07T17:10:25.052Z,99496.75
2019-06-07T17:12:54.284Z,99499.55
2019-06-07T17:15:23.648Z,99498.00
2019-06-07T17:17:53.148Z,99494.50
2019-06-07T17:20:22.804Z,99492.87
2019-06-07T17:22:52.692Z,99470.72
2019-06-07T17:25:22.285Z,99484.42
2019-06-07T17:27:51.704Z,99480.86
2019-06-07T17:30:21.041Z,99457.58
2019-06-07T17:32:58.921Z,99451.43
2019-06-07T17:35:21.757Z,99464.87
2019-06-07T17:37:51.548Z,99464.87
2019-06-07T17:40:22.010Z,99449.92
2019-06-07T17:42:57.121Z,99443.13
2019-06-07T17:45:26.420Z,99473.36
2019-06-07T17:47:55.806Z,99476.52
2019-06-07T17:50:25.023Z,99452.70
2019-06-07T17:52:54.725Z,99466.70
2019-06-07T17:55:23.965Z,99450.97
2019-06-07T17:57:53.233Z,99445.43
2019-06-07T18:00:28.464Z,99425.53
2019-06-07T18:02:54.971Z,99419.41
2019-06-07T18:05:24.322Z,99436.05
2019-06-07T18:07:54.006Z,99443.13
2019-06-07T18:10:50.053Z,99426.47
2019-06-07T18:13:19.401Z,99402.75
2019-06-07T18:15:53.878Z,99422.04
2019-06-07T18:18:20.702Z,99416.56
2019-06-07T18:20:51.505Z,99403.86
2019-06-07T18:23:21.327Z,99360.05
2019-06-07T18:25:50.652Z,99358.88
2019-06-07T18:28:20.252Z,99355.28
2019-06-07T18:30:52.736Z,99383.64
2019-06-07T18:33:22.484Z,99378.34
2019-06-07T18:35:55.300Z,99385.56
2019-06-07T18:38:28.042Z,99379.91
2019-06-07T18:40:59.497Z,99375.86
2019-06-07T18:43:30.272Z,99381.66
2019-06-07T18:46:01.759Z,99375.55
2019-06-07T18:48:31.552Z,99363.11
2019-06-07T18:51:01.174Z,99316.88
2019-06-07T18:53:30.962Z,99265.48
2019-06-07T18:56:01.090Z,99266.42
2019-06-07T18:58:31.388Z,99259.03
2019-06-07T19:01:01.250Z,99314.26
2019-06-07T19:03:32.568Z,99388.49
2019-06-07T19:06:02.220Z,99379.66
2019-06-07T19:08:34.889Z,99388.37
2019-06-07T19:11:04.866Z,99403.61
2019-06-07T19:13:38.948Z,99402.58
2019-06-07T19:16:08.747Z,99400.05
2019-06-07T19:18:38.400Z,99396.16
2019-06-07T19:21:09.100Z,99417.44
2019-06-07T19:23:40.020Z,99420.22
2019-06-07T19:26:09.558Z,99415.30
2019-06-07T19:28:40.736Z,99415.94
2019-06-07T19:31:10.417Z,99426.06
2019-06-07T19:33:48.751Z,99419.96
2019-06-07T19:36:12.134Z,99406.87
2019-06-07T19:38:42.267Z,99380.98
2019-06-07T19:41:19.156Z,99384.22
2019-06-07T19:43:43.342Z,99372.04
2019-06-07T19:46:12.877Z,99355.50
2019-06-07T19:48:42.619Z,99368.09
2019-06-07T19:51:12.330Z,99378.15
2019-06-07T19:53:41.961Z,99401.13
2019-06-07T19:56:11.989Z,99407.73
2019-06-07T19:58:42.323Z,99404.63
2019-06-07T20:01:12.144Z,99407.20
2019-06-07T20:03:42.086Z,99403.97
2019-06-07T20:06:11.711Z,99427.48
2019-06-07T20:08:41.576Z,99417.77
2019-06-07T20:11:11.206Z,99418.56
2019-06-07T20:13:41.303Z,99412.30
2019-06-07T20:16:10.811Z,99419.14
2019-06-07T20:18:40.743Z,99414.54
2019-06-07T20:21:10.584Z,99413.51
2019-06-07T20:23:40.446Z,99405.17
2019-06-07T20:26:11.020Z,99414.83
2019-06-07T20:28:40.895Z,99412.73
2019-06-07T20:31:10.401Z,99409.63
2019-06-07T20:33:40.547Z,99405.31
2019-06-07T20:36:10.990Z,99402.80
2019-06-07T20:38:41.164Z,99387.95
2019-06-07T20:41:10.795Z,99388.23
2019-06-07T20:43:40.595Z,99383.54
2019-06-07T20:46:21.486Z,99384.89
2019-06-07T20:48:51.203Z,99404.31
2019-06-07T20:51:20.492Z,99404.98
2019-06-07T20:53:50.064Z,99405.03
2019-06-07T20:56:19.400Z,99400.07
2019-06-07T20:58:49.432Z,99411.27
2019-06-07T21:01:18.986Z,99421.84
2019-06-07T21:03:48.626Z,99429.99
2019-06-07T21:06:18.450Z,99427.04
2019-06-07T21:08:47.676Z,99435.19
2019-06-07T21:11:17.325Z,99401.34
2019-06-07T21:13:46.585Z,99392.29
2019-06-07T21:16:17.101Z,99419.46
2019-06-07T21:18:46.334Z,99434.64
2019-06-07T21:21:15.570Z,99444.10
2019-06-07T21:23:44.788Z,99456.23
2019-06-07T21:26:16.568Z,99439.50
2019-06-07T21:28:45.790Z,99438.38
2019-06-07T21:31:15.051Z,99435.74
2019-06-07T21:33:48.478Z,99459.20
2019-06-07T21:36:17.807Z,99435.59
2019-06-07T21:38:47.051Z,99438.34
2019-06-07T21:41:16.359Z,99451.59
2019-06-07T21:43:45.873Z,99461.88
2019-06-07T21:46:20.594Z,99469.22
2019-06-07T21:48:46.875Z,99462.72
2019-06-07T21:51:16.407Z,99467.67
2019-06-07T21:53:45.641Z,99470.32
2019-06-07T21:56:14.917Z,99469.60
2019-06-07T21:58:44.118Z,99460.21
2019-06-07T22:01:20.301Z,99480.77
2019-06-07T22:03:49.527Z,99491.19
2019-06-07T22:06:20.326Z,99497.72
2019-06-07T22:08:49.580Z,99505.45
2019-06-07T22:11:18.843Z,99509.36
2019-06-07T22:13:48.110Z,99520.86
2019-06-07T22:16:28.464Z,99518.45
2019-06-07T22:18:50.934Z,99543.95
2019-06-07T22:21:20.141Z,99534.97
2019-06-07T22:23:49.430Z,99530.14
2019-06-07T22:26:18.626Z,99525.38
2019-06-07T22:28:48.726Z,99525.20
2019-06-07T22:31:19.283Z,99527.39
2019-06-07T22:33:49.356Z,99526.47
2019-06-07T22:36:20.291Z,99514.33
2019-06-07T22:38:49.811Z,99522.77
2019-06-07T22:41:19.102Z,99525.58
2019-06-07T22:43:48.328Z,99541.20
2019-06-07T22:46:17.522Z,99544.94
2019-06-07T22:48:46.775Z,99555.98
2019-06-07T22:51:16.478Z,99564.73
2019-06-07T22:53:45.824Z,99561.19
2019-06-07T22:56:50.836Z,99565.25
2019-06-07T22:59:20.585Z,99575.86
2019-06-07T23:01:50.227Z,99563.29
2019-06-07T23:04:19.477Z,99565.52
2019-06-07T23:06:48.669Z,99571.88
2019-06-07T23:09:19.779Z,99573.76
2019-06-07T23:11:49.071Z,99571.02
2019-06-07T23:14:19.509Z,99566.97
2019-06-07T23:16:55.283Z,99568.22
2019-06-07T23:19:20.443Z,99561.00
2019-06-07T23:21:49.770Z,99558.41
2019-06-07T23:24:21.567Z,99552.88
2019-06-07T23:26:50.783Z,99546.50
2019-06-07T23:29:20.709Z,99544.55
2019-06-07T23:31:50.036Z,99553.88
2019-06-07T23:34:19.325Z,99555.55
2019-06-07T23:36:48.559Z,99544.83
2019-06-07T23:39:20.422Z,99557.16
2019-06-07T23:41:48.723Z,99555.20
2019-06-07T23:44:17.939Z,99551.62
2019-06-07T23:46:47.316Z,99550.16
2019-06-07T23:49:17.606Z,99539.85
2019-06-07T23:51:46.916Z,99555.28
2019-06-07T23:54:16.152Z,99558.10
2019-06-07T23:56:45.350Z,99563.84
2019-06-07T23:59:14.596Z,99564.78
